sensor_id;sensor_type;location;lat;lon;timestamp;P1;durP1;ratioP1;P2;durP2;ratioP2
15814;SDS011;8008;50.024;8.172;2022-09-27T03:02:31;0.50;;;0.50;;
15814;SDS011;8008;50.024;8.172;2022-09-27T03:05:26;0.50;;;0.50;;
15814;SDS011;8008;50.024;8.172;2022-09-27T03:08:00;1.35;;;0.80;;
15814;SDS011;8008;50.024;8.172;2022-09-27T03:10:29;0.70;;;0.70;;
15814;SDS011;8008;50.024;8.172;2022-09-27T03:12:58;1.70;;;0.70;;
15814;SDS011;8008;50.024;8.172;2022-09-27T03:15:26;1.13;;;0.70;;
15814;SDS011;8008;50.024;8.172;2022-09-27T03:17:58;1.75;;;0.85;;
15814;SDS011;8008;50.024;8.172;2022-09-27T03:20:45;0.60;;;0.60;;
15814;SDS011;8008;50.024;8.172;2022-09-27T03:23:15;0.50;;;0.50;;
15814;SDS011;8008;50.024;8.172;2022-09-27T03:25:43;0.50;;;0.50;;
15814;SDS011;8008;50.024;8.172;2022-09-27T03:28:11;1.35;;;0.50;;
15814;SDS011;8008;50.024;8.172;2022-09-27T03:30:41;1.80;;;0.77;;
15814;SDS011;8008;50.024;8.172;2022-09-27T03:33:14;1.17;;;0.55;;
15814;SDS011;8008;50.024;8.172;2022-09-27T03:35:42;0.85;;;0.60;;
15814;SDS011;8008;50.024;8.172;2022-09-27T03:38:12;2.13;;;0.70;;
15814;SDS011;8008;50.024;8.172;2022-09-27T03:40:40;0.45;;;0.43;;
15814;SDS011;8008;50.024;8.172;2022-09-27T03:43:09;1.23;;;0.70;;
15814;SDS011;8008;50.024;8.172;2022-09-27T03:45:37;0.38;;;0.38;;
15814;SDS011;8008;50.024;8.172;2022-09-27T03:48:08;3.25;;;0.50;;
15814;SDS011;8008;50.024;8.172;2022-09-27T03:50:37;0.45;;;0.45;;
15814;SDS011;8008;50.024;8.172;2022-09-27T03:53:05;0.50;;;0.50;;
15814;SDS011;8008;50.024;8.172;2022-09-27T03:55:33;0.57;;;0.40;;
15814;SDS011;8008;50.024;8.172;2022-09-27T03:58:01;1.77;;;0.50;;
15814;SDS011;8008;50.024;8.172;2022-09-27T04:00:30;0.40;;;0.40;;
15814;SDS011;8008;50.024;8.172;2022-09-27T04:02:58;0.32;;;0.32;;
15814;SDS011;8008;50.024;8.172;2022-09-27T04:05:27;1.25;;;0.40;;
15814;SDS011;8008;50.024;8.172;2022-09-27T04:08:04;1.00;;;0.40;;
15814;SDS011;8008;50.024;8.172;2022-09-27T04:10:33;0.40;;;0.40;;
15814;SDS011;8008;50.024;8.172;2022-09-27T04:13:02;1.52;;;1.40;;
15814;SDS011;8008;50.024;8.172;2022-09-27T04:15:35;1.48;;;0.50;;
15814;SDS011;8008;50.024;8.172;2022-09-27T04:18:23;1.50;;;0.50;;
15814;SDS011;8008;50.024;8.172;2022-09-27T04:21:06;0.30;;;0.30;;
15814;SDS011;8008;50.024;8.172;2022-09-27T04:23:40;0.73;;;0.47;;
15814;SDS011;8008;50.024;8.172;2022-09-27T04:26:12;0.63;;;0.50;;
15814;SDS011;8008;50.024;8.172;2022-09-27T04:29:00;0.60;;;0.40;;
15814;SDS011;8008;50.024;8.172;2022-09-27T04:31:30;0.50;;;0.50;;
15814;SDS011;8008;50.024;8.172;2022-09-27T04:34:09;0.63;;;0.50;;
15814;SDS011;8008;50.024;8.172;2022-09-27T04:36:37;1.98;;;0.80;;
15814;SDS011;8008;50.024;8.172;2022-09-27T04:39:08;2.10;;;0.70;;
15814;SDS011;8008;50.024;8.172;2022-09-27T04:41:42;0.80;;;0.60;;
15814;SDS011;8008;50.024;8.172;2022-09-27T04:44:11;0.80;;;0.50;;
15814;SDS011;8008;50.024;8.172;2022-09-27T04:46:43;0.80;;;0.57;;
15814;SDS011;8008;50.024;8.172;2022-09-27T04:49:11;1.17;;;0.50;;
15814;SDS011;8008;50.024;8.172;2022-09-27T04:51:39;0.60;;;0.60;;
15814;SDS011;8008;50.024;8.172;2022-09-27T04:54:08;0.60;;;0.60;;
15814;SDS011;8008;50.024;8.172;2022-09-27T04:56:45;1.37;;;0.67;;
15814;SDS011;8008;50.024;8.172;2022-09-27T04:59:14;0.87;;;0.50;;
15814;SDS011;8008;50.024;8.172;2022-09-27T05:01:43;1.48;;;0.80;;
15814;SDS011;8008;50.024;8.172;2022-09-27T05:04:27;0.73;;;0.70;;
15814;SDS011;8008;50.024;8.172;2022-09-27T05:06:55;0.90;;;0.90;;
15814;SDS011;8008;50.024;8.172;2022-09-27T05:09:34;0.98;;;0.70;;
15814;SDS011;8008;50.024;8.172;2022-09-27T05:12:02;1.50;;;0.88;;
15814;SDS011;8008;50.024;8.172;2022-09-27T05:14:54;1.27;;;0.80;;
15814;SDS011;8008;50.024;8.172;2022-09-27T05:17:49;0.70;;;0.70;;
15814;SDS011;8008;50.024;8.172;2022-09-27T05:20:36;6.82;;;0.90;;
15814;SDS011;8008;50.024;8.172;2022-09-27T05:23:23;1.17;;;0.70;;
15814;SDS011;8008;50.024;8.172;2022-09-27T05:25:52;1.37;;;0.73;;
15814;SDS011;8008;50.024;8.172;2022-09-27T05:28:22;1.00;;;0.67;;
15814;SDS011;8008;50.024;8.172;2022-09-27T05:30:50;1.10;;;0.57;;
15814;SDS011;8008;50.024;8.172;2022-09-27T05:33:19;0.60;;;0.60;;
15814;SDS011;8008;50.024;8.172;2022-09-27T05:35:51;0.63;;;0.60;;
15814;SDS011;8008;50.024;8.172;2022-09-27T05:38:22;1.20;;;1.10;;
15814;SDS011;8008;50.024;8.172;2022-09-27T05:40:56;1.07;;;0.70;;
15814;SDS011;8008;50.024;8.172;2022-09-27T05:43:24;0.75;;;0.55;;
15814;SDS011;8008;50.024;8.172;2022-09-27T05:45:55;0.93;;;0.70;;
15814;SDS011;8008;50.024;8.172;2022-09-27T05:48:24;2.10;;;0.70;;
15814;SDS011;8008;50.024;8.172;2022-09-27T05:51:02;0.60;;;0.60;;
15814;SDS011;8008;50.024;8.172;2022-09-27T05:53:33;0.85;;;0.50;;
15814;SDS011;8008;50.024;8.172;2022-09-27T05:56:05;0.50;;;0.50;;
15814;SDS011;8008;50.024;8.172;2022-09-27T05:58:52;0.90;;;0.50;;
15814;SDS011;8008;50.024;8.172;2022-09-27T06:01:21;1.80;;;0.60;;
15814;SDS011;8008;50.024;8.172;2022-09-27T06:04:27;0.60;;;0.60;;
15814;SDS011;8008;50.024;8.172;2022-09-27T06:07:18;1.10;;;0.50;;
15814;SDS011;8008;50.024;8.172;2022-09-27T06:09:46;2.85;;;0.50;;
15814;SDS011;8008;50.024;8.172;2022-09-27T06:12:16;0.40;;;0.40;;
15814;SDS011;8008;50.024;8.172;2022-09-27T06:14:45;1.65;;;0.50;;
15814;SDS011;8008;50.024;8.172;2022-09-27T06:17:26;0.50;;;0.50;;
15814;SDS011;8008;50.024;8.172;2022-09-27T06:19:54;0.95;;;0.47;;
15814;SDS011;8008;50.024;8.172;2022-09-27T06:22:22;1.70;;;0.63;;
15814;SDS011;8008;50.024;8.172;2022-09-27T06:24:57;0.68;;;0.60;;
15814;SDS011;8008;50.024;8.172;2022-09-27T06:27:30;1.05;;;0.60;;
15814;SDS011;8008;50.024;8.172;2022-09-27T06:30:04;0.63;;;0.40;;
15814;SDS011;8008;50.024;8.172;2022-09-27T06:32:44;1.55;;;0.60;;
15814;SDS011;8008;50.024;8.172;2022-09-27T06:35:20;0.95;;;0.50;;
15814;SDS011;8008;50.024;8.172;2022-09-27T06:37:50;0.95;;;0.60;;
15814;SDS011;8008;50.024;8.172;2022-09-27T06:40:19;0.45;;;0.40;;
15814;SDS011;8008;50.024;8.172;2022-09-27T06:43:08;0.50;;;0.50;;
15814;SDS011;8008;50.024;8.172;2022-09-27T06:45:58;0.77;;;0.60;;
15814;SDS011;8008;50.024;8.172;2022-09-27T06:48:45;1.02;;;0.68;;
15814;SDS011;8008;50.024;8.172;2022-09-27T06:51:14;0.50;;;0.50;;
15814;SDS011;8008;50.024;8.172;2022-09-27T06:53:42;1.70;;;0.50;;
15814;SDS011;8008;50.024;8.172;2022-09-27T06:56:10;0.80;;;0.40;;
15814;SDS011;8008;50.024;8.172;2022-09-27T06:58:50;0.77;;;0.47;;
15814;SDS011;8008;50.024;8.172;2022-09-27T07:01:42;1.25;;;0.47;;
15814;SDS011;8008;50.024;8.172;2022-09-27T07:04:29;0.50;;;0.50;;
15814;SDS011;8008;50.024;8.172;2022-09-27T07:07:25;0.35;;;0.35;;
15814;SDS011;8008;50.024;8.172;2022-09-27T07:09:54;3.10;;;0.50;;
15814;SDS011;8008;50.024;8.172;2022-09-27T07:12:25;0.50;;;0.40;;
15814;SDS011;8008;50.024;8.172;2022-09-27T07:14:55;1.75;;;0.60;;
15814;SDS011;8008;50.024;8.172;2022-09-27T07:17:23;1.27;;;0.50;;
15814;SDS011;8008;50.024;8.172;2022-09-27T07:19:53;1.08;;;0.57;;
15814;SDS011;8008;50.024;8.172;2022-09-27T07:22:20;0.73;;;0.50;;
15814;SDS011;8008;50.024;8.172;2022-09-27T07:24:56;1.63;;;0.70;;
15814;SDS011;8008;50.024;8.172;2022-09-27T07:27:24;1.38;;;0.70;;
15814;SDS011;8008;50.024;8.172;2022-09-27T07:29:54;0.73;;;0.68;;
15814;SDS011;8008;50.024;8.172;2022-09-27T07:32:23;2.50;;;0.68;;
15814;SDS011;8008;50.024;8.172;2022-09-27T07:34:52;0.93;;;0.55;;
15814;SDS011;8008;50.024;8.172;2022-09-27T07:37:20;1.38;;;0.73;;
15814;SDS011;8008;50.024;8.172;2022-09-27T07:39:48;2.08;;;0.65;;
15814;SDS011;8008;50.024;8.172;2022-09-27T07:42:16;0.50;;;0.50;;
15814;SDS011;8008;50.024;8.172;2022-09-27T07:44:49;1.25;;;0.70;;
15814;SDS011;8008;50.024;8.172;2022-09-27T07:47:30;2.03;;;0.68;;
15814;SDS011;8008;50.024;8.172;2022-09-27T07:50:09;0.60;;;0.60;;
15814;SDS011;8008;50.024;8.172;2022-09-27T07:52:43;2.05;;;0.60;;
15814;SDS011;8008;50.024;8.172;2022-09-27T07:55:26;2.28;;;0.70;;
15814;SDS011;8008;50.024;8.172;2022-09-27T07:58:04;0.80;;;0.70;;
15814;SDS011;8008;50.024;8.172;2022-09-27T08:00:34;1.45;;;0.50;;
15814;SDS011;8008;50.024;8.172;2022-09-27T08:03:05;1.02;;;0.65;;
15814;SDS011;8008;50.024;8.172;2022-09-27T08:05:35;1.42;;;0.60;;
15814;SDS011;8008;50.024;8.172;2022-09-27T08:08:04;0.60;;;0.60;;
15814;SDS011;8008;50.024;8.172;2022-09-27T08:10:32;1.55;;;0.70;;
15814;SDS011;8008;50.024;8.172;2022-09-27T08:13:02;0.93;;;0.60;;
15814;SDS011;8008;50.024;8.172;2022-09-27T08:15:32;1.85;;;1.10;;
15814;SDS011;8008;50.024;8.172;2022-09-27T08:18:02;2.45;;;1.00;;
15814;SDS011;8008;50.024;8.172;2022-09-27T08:20:59;1.15;;;0.90;;
15814;SDS011;8008;50.024;8.172;2022-09-27T08:23:27;1.00;;;0.80;;
15814;SDS011;8008;50.024;8.172;2022-09-27T08:26:17;0.88;;;0.88;;
15814;SDS011;8008;50.024;8.172;2022-09-27T08:29:09;0.85;;;0.57;;
15814;SDS011;8008;50.024;8.172;2022-09-27T08:31:41;3.38;;;0.75;;
15814;SDS011;8008;50.024;8.172;2022-09-27T08:34:10;0.70;;;0.70;;
15814;SDS011;8008;50.024;8.172;2022-09-27T08:36:39;0.85;;;0.70;;
15814;SDS011;8008;50.024;8.172;2022-09-27T08:39:10;0.40;;;0.40;;
15814;SDS011;8008;50.024;8.172;2022-09-27T08:41:46;1.75;;;0.60;;
15814;SDS011;8008;50.024;8.172;2022-09-27T08:44:21;0.60;;;0.60;;
15814;SDS011;8008;50.024;8.172;2022-09-27T08:47:09;0.93;;;0.60;;
15814;SDS011;8008;50.024;8.172;2022-09-27T08:49:44;1.80;;;0.65;;
15814;SDS011;8008;50.024;8.172;2022-09-27T08:52:18;2.75;;;0.50;;
15814;SDS011;8008;50.024;8.172;2022-09-27T08:54:49;0.50;;;0.50;;
15814;SDS011;8008;50.024;8.172;2022-09-27T08:57:18;0.47;;;0.45;;
15814;SDS011;8008;50.024;8.172;2022-09-27T08:59:51;0.75;;;0.55;;
15814;SDS011;8008;50.024;8.172;2022-09-27T09:02:29;1.48;;;0.50;;
15814;SDS011;8008;50.024;8.172;2022-09-27T09:04:59;0.47;;;0.40;;
15814;SDS011;8008;50.024;8.172;2022-09-27T09:07:43;0.60;;;0.60;;
15814;SDS011;8008;50.024;8.172;2022-09-27T09:10:28;0.40;;;0.30;;
15814;SDS011;8008;50.024;8.172;2022-09-27T09:13:27;2.78;;;0.70;;
15814;SDS011;8008;50.024;8.172;2022-09-27T09:16:08;0.40;;;0.40;;
15814;SDS011;8008;50.024;8.172;2022-09-27T09:18:54;0.50;;;0.35;;
15814;SDS011;8008;50.024;8.172;2022-09-27T09:21:38;1.05;;;0.80;;
15814;SDS011;8008;50.024;8.172;2022-09-27T09:24:18;2.03;;;0.55;;
15814;SDS011;8008;50.024;8.172;2022-09-27T09:26:55;0.40;;;0.40;;
15814;SDS011;8008;50.024;8.172;2022-09-27T09:29:32;0.60;;;0.47;;
15814;SDS011;8008;50.024;8.172;2022-09-27T09:32:14;0.88;;;0.63;;
15814;SDS011;8008;50.024;8.172;2022-09-27T09:34:56;1.05;;;0.77;;
15814;SDS011;8008;50.024;8.172;2022-09-27T09:37:29;1.83;;;0.85;;
15814;SDS011;8008;50.024;8.172;2022-09-27T09:40:04;1.75;;;0.50;;
15814;SDS011;8008;50.024;8.172;2022-09-27T09:42:44;1.33;;;0.43;;
15814;SDS011;8008;50.024;8.172;2022-09-27T09:45:18;0.82;;;0.50;;
15814;SDS011;8008;50.024;8.172;2022-09-27T09:47:50;0.65;;;0.65;;
15814;SDS011;8008;50.024;8.172;2022-09-27T09:50:24;0.40;;;0.40;;
15814;SDS011;8008;50.024;8.172;2022-09-27T09:52:57;0.65;;;0.43;;
15814;SDS011;8008;50.024;8.172;2022-09-27T09:55:34;1.17;;;0.57;;
15814;SDS011;8008;50.024;8.172;2022-09-27T09:58:04;1.10;;;0.40;;
15814;SDS011;8008;50.024;8.172;2022-09-27T10:00:48;1.40;;;0.57;;
15814;SDS011;8008;50.024;8.172;2022-09-27T10:03:20;0.57;;;0.38;;
15814;SDS011;8008;50.024;8.172;2022-09-27T10:05:49;0.95;;;0.47;;
15814;SDS011;8008;50.024;8.172;2022-09-27T10:08:18;1.25;;;0.40;;
15814;SDS011;8008;50.024;8.172;2022-09-27T10:10:58;0.40;;;0.40;;
15814;SDS011;8008;50.024;8.172;2022-09-27T10:13:45;0.40;;;0.40;;
15814;SDS011;8008;50.024;8.172;2022-09-27T10:16:15;2.00;;;0.52;;
15814;SDS011;8008;50.024;8.172;2022-09-27T10:18:45;0.88;;;0.50;;
15814;SDS011;8008;50.024;8.172;2022-09-27T10:21:18;0.50;;;0.50;;
15814;SDS011;8008;50.024;8.172;2022-09-27T10:24:01;0.57;;;0.52;;
15814;SDS011;8008;50.024;8.172;2022-09-27T10:26:56;0.93;;;0.40;;
15814;SDS011;8008;50.024;8.172;2022-09-27T10:29:28;0.50;;;0.50;;
15814;SDS011;8008;50.024;8.172;2022-09-27T10:32:04;0.70;;;0.40;;
15814;SDS011;8008;50.024;8.172;2022-09-27T10:34:45;0.75;;;0.60;;
15814;SDS011;8008;50.024;8.172;2022-09-27T10:37:15;0.73;;;0.63;;
15814;SDS011;8008;50.024;8.172;2022-09-27T10:39:57;1.90;;;0.90;;
15814;SDS011;8008;50.024;8.172;2022-09-27T10:42:33;1.00;;;0.60;;
15814;SDS011;8008;50.024;8.172;2022-09-27T10:45:20;1.55;;;0.55;;
15814;SDS011;8008;50.024;8.172;2022-09-27T10:48:03;0.95;;;0.52;;
15814;SDS011;8008;50.024;8.172;2022-09-27T10:50:40;0.75;;;0.55;;
15814;SDS011;8008;50.024;8.172;2022-09-27T10:53:51;1.02;;;0.68;;
15814;SDS011;8008;50.024;8.172;2022-09-27T10:56:27;0.70;;;0.70;;
15814;SDS011;8008;50.024;8.172;2022-09-27T10:58:58;0.65;;;0.65;;
15814;SDS011;8008;50.024;8.172;2022-09-27T11:01:37;0.70;;;0.70;;
15814;SDS011;8008;50.024;8.172;2022-09-27T11:04:22;1.38;;;1.10;;
15814;SDS011;8008;50.024;8.172;2022-09-27T11:07:05;1.10;;;0.90;;
15814;SDS011;8008;50.024;8.172;2022-09-27T11:09:45;0.75;;;0.75;;
15814;SDS011;8008;50.024;8.172;2022-09-27T11:12:16;1.02;;;0.80;;
15814;SDS011;8008;50.024;8.172;2022-09-27T11:14:55;0.75;;;0.65;;
15814;SDS011;8008;50.024;8.172;2022-09-27T11:17:30;3.72;;;0.90;;
15814;SDS011;8008;50.024;8.172;2022-09-27T11:20:15;1.73;;;1.00;;
15814;SDS011;8008;50.024;8.172;2022-09-27T11:22:54;1.73;;;1.15;;
15814;SDS011;8008;50.024;8.172;2022-09-27T11:25:37;1.80;;;0.85;;
15814;SDS011;8008;50.024;8.172;2022-09-27T11:28:13;0.80;;;0.80;;
15814;SDS011;8008;50.024;8.172;2022-09-27T11:30:50;1.20;;;0.73;;
15814;SDS011;8008;50.024;8.172;2022-09-27T11:33:41;1.05;;;0.70;;
15814;SDS011;8008;50.024;8.172;2022-09-27T11:36:17;2.13;;;0.82;;
15814;SDS011;8008;50.024;8.172;2022-09-27T11:39:01;0.90;;;0.90;;
15814;SDS011;8008;50.024;8.172;2022-09-27T11:41:43;1.85;;;1.30;;
15814;SDS011;8008;50.024;8.172;2022-09-27T11:44:40;3.80;;;1.00;;
15814;SDS011;8008;50.024;8.172;2022-09-27T11:47:35;3.25;;;0.90;;
15814;SDS011;8008;50.024;8.172;2022-09-27T11:50:18;1.00;;;0.77;;
15814;SDS011;8008;50.024;8.172;2022-09-27T11:53:00;1.98;;;1.00;;
15814;SDS011;8008;50.024;8.172;2022-09-27T11:55:42;1.17;;;1.08;;
15814;SDS011;8008;50.024;8.172;2022-09-27T11:58:21;5.15;;;1.13;;
15814;SDS011;8008;50.024;8.172;2022-09-27T12:01:03;2.15;;;1.08;;
15814;SDS011;8008;50.024;8.172;2022-09-27T12:03:48;2.85;;;1.10;;
15814;SDS011;8008;50.024;8.172;2022-09-27T12:06:28;1.02;;;0.93;;
15814;SDS011;8008;50.024;8.172;2022-09-27T12:09:04;1.25;;;1.05;;
15814;SDS011;8008;50.024;8.172;2022-09-27T12:11:37;2.25;;;1.00;;
15814;SDS011;8008;50.024;8.172;2022-09-27T12:14:13;2.13;;;1.15;;
15814;SDS011;8008;50.024;8.172;2022-09-27T12:16:53;1.02;;;1.02;;
15814;SDS011;8008;50.024;8.172;2022-09-27T12:19:26;2.50;;;1.10;;
15814;SDS011;8008;50.024;8.172;2022-09-27T12:22:01;1.77;;;1.10;;
15814;SDS011;8008;50.024;8.172;2022-09-27T12:24:37;2.30;;;0.80;;
15814;SDS011;8008;50.024;8.172;2022-09-27T12:27:18;4.75;;;1.35;;
15814;SDS011;8008;50.024;8.172;2022-09-27T12:29:51;2.17;;;1.00;;
15814;SDS011;8008;50.024;8.172;2022-09-27T12:32:23;2.17;;;1.00;;
15814;SDS011;8008;50.024;8.172;2022-09-27T12:34:55;1.17;;;0.90;;
15814;SDS011;8008;50.024;8.172;2022-09-27T12:37:30;1.33;;;0.82;;
15814;SDS011;8008;50.024;8.172;2022-09-27T12:40:05;1.02;;;0.93;;
15814;SDS011;8008;50.024;8.172;2022-09-27T12:42:43;1.55;;;0.77;;
15814;SDS011;8008;50.024;8.172;2022-09-27T12:45:26;0.55;;;0.55;;
15814;SDS011;8008;50.024;8.172;2022-09-27T12:48:03;1.20;;;0.70;;
15814;SDS011;8008;50.024;8.172;2022-09-27T12:50:39;1.42;;;0.70;;
15814;SDS011;8008;50.024;8.172;2022-09-27T12:53:11;0.73;;;0.70;;
15814;SDS011;8008;50.024;8.172;2022-09-27T12:55:58;0.80;;;0.65;;
15814;SDS011;8008;50.024;8.172;2022-09-27T13:02:06;3.05;;;1.00;;
15814;SDS011;8008;50.024;8.172;2022-09-27T13:04:57;0.95;;;0.77;;
15814;SDS011;8008;50.024;8.172;2022-09-27T13:07:43;0.65;;;0.60;;
15814;SDS011;8008;50.024;8.172;2022-09-27T13:13:21;0.50;;;0.50;;
15814;SDS011;8008;50.024;8.172;2022-09-27T13:15:54;0.60;;;0.60;;
15814;SDS011;8008;50.024;8.172;2022-09-27T13:18:29;0.90;;;0.55;;
15814;SDS011;8008;50.024;8.172;2022-09-27T13:21:01;1.30;;;0.50;;
15814;SDS011;8008;50.024;8.172;2022-09-27T13:26:47;0.50;;;0.50;;
15814;SDS011;8008;50.024;8.172;2022-09-27T13:29:20;1.55;;;0.50;;
15814;SDS011;8008;50.024;8.172;2022-09-27T13:35:09;0.75;;;0.70;;
15814;SDS011;8008;50.024;8.172;2022-09-27T13:37:54;1.38;;;0.68;;
15814;SDS011;8008;50.024;8.172;2022-09-27T13:40:33;0.93;;;0.80;;
15814;SDS011;8008;50.024;8.172;2022-09-27T13:43:33;0.65;;;0.60;;
15814;SDS011;8008;50.024;8.172;2022-09-27T13:46:19;0.70;;;0.70;;
15814;SDS011;8008;50.024;8.172;2022-09-27T13:48:51;0.82;;;0.80;;
15814;SDS011;8008;50.024;8.172;2022-09-27T13:51:32;0.70;;;0.70;;
15814;SDS011;8008;50.024;8.172;2022-09-27T13:54:04;0.75;;;0.73;;
15814;SDS011;8008;50.024;8.172;2022-09-27T13:56:49;0.90;;;0.77;;
15814;SDS011;8008;50.024;8.172;2022-09-27T13:59:23;0.70;;;0.70;;
15814;SDS011;8008;50.024;8.172;2022-09-27T14:02:22;1.02;;;0.93;;
15814;SDS011;8008;50.024;8.172;2022-09-27T14:04:54;2.25;;;0.77;;
15814;SDS011;8008;50.024;8.172;2022-09-27T14:07:25;1.67;;;1.00;;
15814;SDS011;8008;50.024;8.172;2022-09-27T14:09:59;1.33;;;0.88;;
15814;SDS011;8008;50.024;8.172;2022-09-27T14:12:34;2.03;;;0.88;;
15814;SDS011;8008;50.024;8.172;2022-09-27T14:15:11;0.60;;;0.60;;
15814;SDS011;8008;50.024;8.172;2022-09-27T14:17:45;1.75;;;0.90;;
15814;SDS011;8008;50.024;8.172;2022-09-27T14:23:03;1.30;;;0.80;;
15814;SDS011;8008;50.024;8.172;2022-09-27T14:25:37;1.38;;;1.05;;
15814;SDS011;8008;50.024;8.172;2022-09-27T14:28:18;1.00;;;0.90;;
15814;SDS011;8008;50.024;8.172;2022-09-27T14:31:09;1.52;;;1.10;;
15814;SDS011;8008;50.024;8.172;2022-09-27T14:34:12;0.80;;;0.80;;
15814;SDS011;8008;50.024;8.172;2022-09-27T14:36:47;0.90;;;0.90;;
15814;SDS011;8008;50.024;8.172;2022-09-27T14:39:43;1.02;;;0.90;;
15814;SDS011;8008;50.024;8.172;2022-09-27T14:42:28;1.10;;;1.00;;
15814;SDS011;8008;50.024;8.172;2022-09-27T14:45:19;0.80;;;0.80;;
15814;SDS011;8008;50.024;8.172;2022-09-27T14:47:51;1.42;;;1.00;;
15814;SDS011;8008;50.024;8.172;2022-09-27T14:50:22;1.20;;;0.80;;
15814;SDS011;8008;50.024;8.172;2022-09-27T14:52:53;0.80;;;0.80;;
15814;SDS011;8008;50.024;8.172;2022-09-27T14:55:23;1.00;;;0.88;;
15814;SDS011;8008;50.024;8.172;2022-09-27T14:57:54;2.25;;;1.10;;
15814;SDS011;8008;50.024;8.172;2022-09-27T15:00:26;1.50;;;0.90;;
15814;SDS011;8008;50.024;8.172;2022-09-27T15:02:57;2.90;;;1.13;;
15814;SDS011;8008;50.024;8.172;2022-09-27T15:05:29;1.30;;;0.80;;
15814;SDS011;8008;50.024;8.172;2022-09-27T15:08:00;1.38;;;1.20;;
15814;SDS011;8008;50.024;8.172;2022-09-27T15:10:31;1.17;;;0.85;;
15814;SDS011;8008;50.024;8.172;2022-09-27T15:13:02;1.45;;;0.90;;
15814;SDS011;8008;50.024;8.172;2022-09-27T15:15:33;2.97;;;1.08;;
15814;SDS011;8008;50.024;8.172;2022-09-27T15:20:58;1.80;;;1.00;;
15814;SDS011;8008;50.024;8.172;2022-09-27T15:23:27;0.80;;;0.80;;
15814;SDS011;8008;50.024;8.172;2022-09-27T15:25:57;0.88;;;0.80;;
15814;SDS011;8008;50.024;8.172;2022-09-27T15:28:29;1.13;;;0.80;;
15814;SDS011;8008;50.024;8.172;2022-09-27T15:30:58;3.33;;;0.80;;
15814;SDS011;8008;50.024;8.172;2022-09-27T15:33:27;1.08;;;0.90;;
15814;SDS011;8008;50.024;8.172;2022-09-27T15:35:58;0.80;;;0.80;;
15814;SDS011;8008;50.024;8.172;2022-09-27T15:38:29;1.17;;;0.90;;
15814;SDS011;8008;50.024;8.172;2022-09-27T15:41:00;2.08;;;1.10;;
15814;SDS011;8008;50.024;8.172;2022-09-27T15:43:31;1.20;;;0.90;;
15814;SDS011;8008;50.024;8.172;2022-09-27T15:46:03;1.45;;;1.02;;
15814;SDS011;8008;50.024;8.172;2022-09-27T15:51:53;1.40;;;1.20;;
15814;SDS011;8008;50.024;8.172;2022-09-27T15:54:22;3.05;;;1.02;;
15814;SDS011;8008;50.024;8.172;2022-09-27T15:56:53;1.23;;;1.08;;
15814;SDS011;8008;50.024;8.172;2022-09-27T15:59:23;2.53;;;1.27;;
15814;SDS011;8008;50.024;8.172;2022-09-27T16:01:55;2.22;;;1.50;;
15814;SDS011;8008;50.024;8.172;2022-09-27T16:04:24;1.02;;;1.02;;
15814;SDS011;8008;50.024;8.172;2022-09-27T16:06:52;1.10;;;1.00;;
15814;SDS011;8008;50.024;8.172;2022-09-27T16:09:21;2.65;;;1.00;;
15814;SDS011;8008;50.024;8.172;2022-09-27T16:11:49;1.77;;;1.60;;
15814;SDS011;8008;50.024;8.172;2022-09-27T16:14:17;2.90;;;1.70;;
15814;SDS011;8008;50.024;8.172;2022-09-27T16:16:46;2.08;;;1.23;;
15814;SDS011;8008;50.024;8.172;2022-09-27T16:19:17;1.13;;;1.02;;
15814;SDS011;8008;50.024;8.172;2022-09-27T16:21:45;3.17;;;2.00;;
15814;SDS011;8008;50.024;8.172;2022-09-27T16:24:14;2.47;;;1.33;;
15814;SDS011;8008;50.024;8.172;2022-09-27T16:26:43;1.95;;;1.30;;
15814;SDS011;8008;50.024;8.172;2022-09-27T16:29:11;1.50;;;1.40;;
15814;SDS011;8008;50.024;8.172;2022-09-27T16:31:41;3.45;;;2.08;;
15814;SDS011;8008;50.024;8.172;2022-09-27T16:34:09;1.73;;;1.23;;
15814;SDS011;8008;50.024;8.172;2022-09-27T16:36:39;1.40;;;1.30;;
15814;SDS011;8008;50.024;8.172;2022-09-27T16:39:09;1.20;;;1.10;;
15814;SDS011;8008;50.024;8.172;2022-09-27T16:41:39;1.13;;;0.93;;
15814;SDS011;8008;50.024;8.172;2022-09-27T16:44:07;1.70;;;1.60;;
15814;SDS011;8008;50.024;8.172;2022-09-27T16:46:38;2.88;;;1.60;;
15814;SDS011;8008;50.024;8.172;2022-09-27T16:49:06;1.98;;;1.40;;
15814;SDS011;8008;50.024;8.172;2022-09-27T16:51:56;3.17;;;1.50;;
15814;SDS011;8008;50.024;8.172;2022-09-27T16:54:27;1.60;;;1.50;;
15814;SDS011;8008;50.024;8.172;2022-09-27T16:56:56;3.33;;;2.25;;
15814;SDS011;8008;50.024;8.172;2022-09-27T16:59:25;4.95;;;2.17;;
15814;SDS011;8008;50.024;8.172;2022-09-27T17:01:53;4.13;;;2.50;;
15814;SDS011;8008;50.024;8.172;2022-09-27T17:04:23;2.90;;;1.85;;
15814;SDS011;8008;50.024;8.172;2022-09-27T17:06:52;3.33;;;2.92;;
15814;SDS011;8008;50.024;8.172;2022-09-27T17:09:21;3.28;;;1.77;;
15814;SDS011;8008;50.024;8.172;2022-09-27T17:11:50;3.03;;;2.20;;
15814;SDS011;8008;50.024;8.172;2022-09-27T17:14:18;2.83;;;2.22;;
15814;SDS011;8008;50.024;8.172;2022-09-27T17:16:46;3.75;;;2.58;;
15814;SDS011;8008;50.024;8.172;2022-09-27T17:19:14;6.78;;;3.65;;
15814;SDS011;8008;50.024;8.172;2022-09-27T17:21:43;6.32;;;3.95;;
15814;SDS011;8008;50.024;8.172;2022-09-27T17:24:11;6.90;;;4.18;;
15814;SDS011;8008;50.024;8.172;2022-09-27T17:26:41;3.67;;;2.40;;
15814;SDS011;8008;50.024;8.172;2022-09-27T17:29:09;2.20;;;1.83;;
15814;SDS011;8008;50.024;8.172;2022-09-27T17:31:39;1.63;;;1.50;;
15814;SDS011;8008;50.024;8.172;2022-09-27T17:34:08;2.70;;;1.50;;
15814;SDS011;8008;50.024;8.172;2022-09-27T17:36:38;1.73;;;1.60;;
15814;SDS011;8008;50.024;8.172;2022-09-27T17:39:09;2.45;;;1.80;;
15814;SDS011;8008;50.024;8.172;2022-09-27T17:41:38;2.70;;;1.80;;
15814;SDS011;8008;50.024;8.172;2022-09-27T17:44:09;2.15;;;1.70;;
15814;SDS011;8008;50.024;8.172;2022-09-27T17:46:46;3.70;;;2.50;;
15814;SDS011;8008;50.024;8.172;2022-09-27T17:49:34;3.53;;;2.42;;
15814;SDS011;8008;50.024;8.172;2022-09-27T17:52:20;5.28;;;2.58;;
15814;SDS011;8008;50.024;8.172;2022-09-27T17:54:48;3.13;;;2.08;;
15814;SDS011;8008;50.024;8.172;2022-09-27T17:57:18;2.30;;;1.85;;
15814;SDS011;8008;50.024;8.172;2022-09-27T17:59:46;2.13;;;1.75;;
15814;SDS011;8008;50.024;8.172;2022-09-27T18:02:13;3.95;;;2.05;;
15814;SDS011;8008;50.024;8.172;2022-09-27T18:04:41;2.22;;;1.77;;
15814;SDS011;8008;50.024;8.172;2022-09-27T18:07:09;1.83;;;1.65;;
15814;SDS011;8008;50.024;8.172;2022-09-27T18:09:38;4.25;;;2.15;;
15814;SDS011;8008;50.024;8.172;2022-09-27T18:12:06;2.60;;;2.13;;
15814;SDS011;8008;50.024;8.172;2022-09-27T18:14:35;3.35;;;2.08;;
15814;SDS011;8008;50.024;8.172;2022-09-27T18:17:03;3.20;;;2.05;;
15814;SDS011;8008;50.024;8.172;2022-09-27T18:19:31;2.90;;;1.95;;
15814;SDS011;8008;50.024;8.172;2022-09-27T18:21:59;5.40;;;2.10;;
15814;SDS011;8008;50.024;8.172;2022-09-27T18:24:27;2.60;;;2.00;;
15814;SDS011;8008;50.024;8.172;2022-09-27T18:26:55;3.08;;;2.22;;
15814;SDS011;8008;50.024;8.172;2022-09-27T18:29:24;5.22;;;2.78;;
15814;SDS011;8008;50.024;8.172;2022-09-27T18:31:55;5.05;;;3.00;;
15814;SDS011;8008;50.024;8.172;2022-09-27T18:34:23;4.60;;;2.20;;
15814;SDS011;8008;50.024;8.172;2022-09-27T18:36:51;4.00;;;2.22;;
15814;SDS011;8008;50.024;8.172;2022-09-27T18:39:19;4.00;;;2.20;;
15814;SDS011;8008;50.024;8.172;2022-09-27T18:41:47;2.20;;;1.85;;
15814;SDS011;8008;50.024;8.172;2022-09-27T18:44:16;2.10;;;1.90;;
15814;SDS011;8008;50.024;8.172;2022-09-27T18:46:44;3.85;;;1.90;;
15814;SDS011;8008;50.024;8.172;2022-09-27T18:49:14;1.88;;;1.63;;
15814;SDS011;8008;50.024;8.172;2022-09-27T18:51:42;2.35;;;1.50;;
15814;SDS011;8008;50.024;8.172;2022-09-27T18:54:13;3.35;;;2.00;;
15814;SDS011;8008;50.024;8.172;2022-09-27T18:56:43;4.20;;;1.85;;
15814;SDS011;8008;50.024;8.172;2022-09-27T18:59:12;3.88;;;1.90;;
15814;SDS011;8008;50.024;8.172;2022-09-27T19:01:41;4.10;;;2.13;;
15814;SDS011;8008;50.024;8.172;2022-09-27T19:04:12;3.15;;;2.13;;
15814;SDS011;8008;50.024;8.172;2022-09-27T19:06:48;2.83;;;1.98;;
15814;SDS011;8008;50.024;8.172;2022-09-27T19:09:17;2.30;;;1.92;;